Time;durP1;ratioP1;P1;durP2;ratioP2;P2;SDS_P1;SDS_P2;PMS_P1;PMS_P2;Temp;Humidity;BMP_temperature;BMP_pressure;BME280_temperature;BME280_humidity;BME280_pressure;Samples;Min_cycle;Max_cycle;Signal;HPM_P1;HPM_P2
2022/01/22 00:01:49;;;;;;;5.35;3.88;;;5.70;99.90;;;;;;5033788;28;20300;-63
2022/01/22 00:04:16;;;;;;;5.60;4.35;;;5.70;99.90;;;;;;5033184;28;20706;-62
2022/01/22 00:06:45;;;;;;;4.35;3.95;;;5.70;99.90;;;;;;5033308;28;20677;-61
2022/01/22 00:09:12;;;;;;;4.57;4.10;;;5.70;99.90;;;;;;5033804;28;20213;-61
2022/01/22 00:11:50;;;;;;;5.40;4.20;;;5.70;99.90;;;;;;5033645;28;20213;-62
2022/01/22 00:14:26;;;;;;;5.25;4.75;;;5.70;99.90;;;;;;5033291;28;20230;-61
2022/01/22 00:16:55;;;;;;;6.65;4.20;;;5.70;99.90;;;;;;5033877;28;20201;-61
2022/01/22 00:19:22;;;;;;;6.50;3.97;;;5.70;99.90;;;;;;5034338;28;20206;-61
2022/01/22 00:21:51;;;;;;;5.63;4.50;;;5.70;99.90;;;;;;5037044;28;20203;-61
2022/01/22 00:24:19;;;;;;;5.32;4.47;;;5.70;99.90;;;;;;5041403;28;20225;-61
2022/01/22 00:26:47;;;;;;;5.70;3.70;;;5.70;99.90;;;;;;5039661;28;20205;-62
2022/01/22 00:29:16;;;;;;;5.10;4.32;;;5.70;99.90;;;;;;5037903;28;20570;-61
2022/01/22 00:31:43;;;;;;;5.60;4.10;;;5.70;99.90;;;;;;5037499;28;20744;-62
2022/01/22 00:34:11;;;;;;;4.88;4.35;;;5.70;99.90;;;;;;5037464;28;20226;-61
2022/01/22 00:36:39;;;;;;;5.82;4.50;;;5.70;99.90;;;;;;5037985;28;20202;-62
2022/01/22 00:39:08;;;;;;;5.32;3.67;;;5.70;99.90;;;;;;5036967;28;20670;-61
2022/01/22 00:41:36;;;;;;;6.63;3.75;;;5.70;99.90;;;;;;5037037;28;20210;-61
2022/01/22 00:44:03;;;;;;;5.00;3.95;;;5.70;99.90;;;;;;5037017;28;20230;-62
2022/01/22 00:46:30;;;;;;;5.80;3.95;;;5.70;99.90;;;;;;5037034;28;20210;-62
2022/01/22 00:48:57;;;;;;;4.18;3.50;;;5.70;99.90;;;;;;5037438;28;20197;-62
2022/01/22 00:51:24;;;;;;;4.40;3.15;;;5.70;99.90;;;;;;5036721;28;20202;-62
2022/01/22 00:53:52;;;;;;;3.63;3.22;;;5.70;99.90;;;;;;5036342;28;20234;-62
2022/01/22 00:56:20;;;;;;;4.35;3.65;;;5.70;99.90;;;;;;5036599;28;20592;-62
2022/01/22 00:58:47;;;;;;;5.15;4.05;;;5.70;99.90;;;;;;5036593;28;20693;-62
2022/01/22 01:01:15;;;;;;;4.00;3.50;;;5.70;99.90;;;;;;5036404;28;20202;-61
2022/01/22 01:03:42;;;;;;;5.88;4.20;;;5.70;99.90;;;;;;5036970;28;20214;-62
2022/01/22 01:06:09;;;;;;;4.55;3.75;;;5.70;99.90;;;;;;5036808;28;20214;-62
2022/01/22 01:08:37;;;;;;;5.28;4.15;;;5.70;99.90;;;;;;5047966;28;20208;-62
2022/01/22 01:11:05;;;;;;;4.88;3.72;;;5.70;99.90;;;;;;5054927;28;20202;-62
2022/01/22 01:13:40;;;;;;;4.82;3.90;;;5.70;99.90;;;;;;5055760;28;20232;-62
2022/01/22 01:16:18;;;;;;;5.32;4.57;;;5.70;99.90;;;;;;5055146;28;20221;-62
2022/01/22 01:32:39;;;;;;;6.30;4.50;;;5.70;99.90;;;;;;5053021;28;20197;-62
2022/01/22 01:35:07;;;;;;;4.97;3.42;;;5.70;99.90;;;;;;5055239;28;20253;-62
2022/01/22 01:37:35;;;;;;;4.40;3.95;;;5.70;99.90;;;;;;5053978;28;20252;-61
2022/01/22 01:40:05;;;;;;;5.72;4.43;;;5.70;99.90;;;;;;5048710;28;20293;-60
2022/01/22 01:42:39;;;;;;;5.03;3.55;;;5.70;99.90;;;;;;5042135;28;20199;-62
2022/01/22 01:45:09;;;;;;;4.15;3.70;;;5.70;99.90;;;;;;5044742;28;20284;-62
2022/01/22 01:47:38;;;;;;;4.70;3.65;;;5.70;99.90;;;;;;5042033;28;20214;-61
2022/01/22 01:50:06;;;;;;;4.22;3.75;;;5.70;99.90;;;;;;5037948;28;20267;-61
2022/01/22 01:52:40;;;;;;;5.30;3.40;;;5.70;99.90;;;;;;5036643;28;20215;-62
2022/01/22 01:55:13;;;;;;;4.43;3.60;;;5.70;99.90;;;;;;5036475;28;20321;-61
2022/01/22 01:57:40;;;;;;;5.05;3.00;;;5.70;99.90;;;;;;5036628;28;20197;-62
2022/01/22 02:00:14;;;;;;;4.85;3.53;;;5.70;99.90;;;;;;5037039;28;20682;-61
2022/01/22 02:02:41;;;;;;;3.80;3.28;;;5.70;99.90;;;;;;5038986;28;20211;-62
2022/01/22 02:05:11;;;;;;;3.70;2.90;;;5.70;99.90;;;;;;5040122;28;20288;-62
2022/01/22 02:07:40;;;;;;;3.70;2.75;;;5.70;99.90;;;;;;5039239;28;20212;-62
2022/01/22 02:10:11;;;;;;;5.00;3.70;;;5.70;99.90;;;;;;5037284;28;20206;-61
2022/01/22 02:13:36;;;;;;;4.43;3.08;;;5.70;99.90;;;;;;5036487;28;20190;-62
2022/01/22 02:23:56;;;;;;;4.18;3.17;;;5.80;99.90;;;;;;5035858;28;20604;-62
2022/01/22 02:26:23;;;;;;;4.65;3.58;;;5.80;99.90;;;;;;5037899;28;20717;-61
2022/01/22 02:28:52;;;;;;;5.05;3.20;;;5.70;99.90;;;;;;5039055;28;20203;-61
2022/01/22 02:31:28;;;;;;;4.82;3.55;;;5.80;99.90;;;;;;5037047;28;20548;-62
2022/01/22 02:34:04;;;;;;;4.57;4.13;;;5.80;99.90;;;;;;5034992;28;20221;-62
2022/01/22 02:36:38;;;;;;;4.32;3.15;;;5.80;99.90;;;;;;5034990;28;20198;-62
2022/01/22 02:39:10;;;;;;;4.25;3.55;;;5.80;99.90;;;;;;5034975;28;20187;-62
2022/01/22 02:41:41;;;;;;;5.40;3.80;;;5.80;99.90;;;;;;5035220;28;20218;-62
2022/01/22 02:44:11;;;;;;;4.90;3.20;;;5.80;99.90;;;;;;5034767;28;20225;-61
2022/01/22 02:46:42;;;;;;;6.35;3.45;;;5.80;99.90;;;;;;5035187;28;20206;-61
2022/01/22 02:49:09;;;;;;;3.88;2.80;;;5.80;99.90;;;;;;5033624;28;20225;-61
2022/01/22 02:51:39;;;;;;;4.47;2.78;;;5.80;99.90;;;;;;5034716;28;20693;-61
2022/01/22 02:54:06;;;;;;;4.15;3.28;;;5.80;99.90;;;;;;5034929;28;20222;-61
2022/01/22 02:56:33;;;;;;;4.20;3.28;;;5.80;99.90;;;;;;5034445;28;20202;-62
2022/01/22 02:59:00;;;;;;;4.88;3.25;;;5.80;99.90;;;;;;5034376;28;20206;-62
2022/01/22 03:01:27;;;;;;;5.10;3.75;;;5.90;99.90;;;;;;5034640;28;20213;-62
2022/01/22 03:03:55;;;;;;;4.15;3.00;;;5.80;99.90;;;;;;5034298;28;20214;-60
2022/01/22 03:06:22;;;;;;;4.05;3.15;;;5.80;99.90;;;;;;5034348;28;20679;-61
2022/01/22 03:08:51;;;;;;;5.13;3.72;;;5.90;99.90;;;;;;5034624;28;20211;-61
2022/01/22 03:11:20;;;;;;;4.50;3.50;;;5.90;99.90;;;;;;5034281;28;20670;-61
2022/01/22 03:19:55;;;;;;;4.53;3.00;;;5.90;99.90;;;;;;5030241;28;20197;-62
2022/01/22 03:22:26;;;;;;;4.70;3.45;;;5.90;99.90;;;;;;5033707;28;20198;-62
2022/01/22 03:27:39;;;;;;;4.07;3.10;;;5.90;99.90;;;;;;5034225;28;20557;-62
2022/01/22 03:30:08;;;;;;;4.13;2.97;;;5.90;99.90;;;;;;5034460;28;20202;-62
2022/01/22 03:32:40;;;;;;;7.93;3.85;;;5.90;99.90;;;;;;5034454;28;20226;-62
2022/01/22 03:35:12;;;;;;;4.75;3.60;;;5.90;99.90;;;;;;5034558;28;20233;-61
2022/01/22 03:37:40;;;;;;;3.42;2.90;;;5.90;99.90;;;;;;5033454;28;20282;-62
2022/01/22 03:40:10;;;;;;;5.28;3.60;;;5.90;99.90;;;;;;5033851;28;20202;-62
2022/01/22 03:42:38;;;;;;;4.50;3.25;;;5.90;99.90;;;;;;5033654;28;20202;-61
2022/01/22 03:45:06;;;;;;;4.45;3.30;;;5.90;99.90;;;;;;5033860;28;20237;-61
2022/01/22 03:47:33;;;;;;;3.45;2.88;;;5.90;99.90;;;;;;5033545;28;20214;-61
2022/01/22 03:50:00;;;;;;;4.75;3.67;;;5.90;99.90;;;;;;5033319;28;20687;-61
2022/01/22 03:52:27;;;;;;;3.53;3.03;;;5.90;99.90;;;;;;5033419;28;20206;-62
2022/01/22 03:54:55;;;;;;;4.13;3.03;;;5.90;99.90;;;;;;5033516;28;20577;-61
2022/01/22 03:57:24;;;;;;;4.18;3.38;;;5.90;99.90;;;;;;5033645;28;20220;-62
2022/01/22 03:59:52;;;;;;;4.30;3.20;;;5.90;99.90;;;;;;5032914;28;20297;-62
2022/01/22 04:05:06;;;;;;;3.88;3.10;;;5.90;99.90;;;;;;5024070;28;20233;-62
2022/01/22 04:09:15;;;;;;;4.03;3.40;;;5.90;99.90;;;;;;5112035;27;20605;-61
2022/01/22 04:11:44;;;;;;;6.32;3.28;;;5.90;99.90;;;;;;5111319;28;20184;-62
2022/01/22 04:14:17;;;;;;;5.03;3.35;;;5.90;99.90;;;;;;5111401;28;20306;-61
2022/01/22 04:16:57;;;;;;;5.20;4.00;;;5.90;99.90;;;;;;5112441;28;20241;-62
2022/01/22 04:24:55;;;;;;;6.38;3.92;;;6.00;99.90;;;;;;5050607;28;20181;-57
2022/01/22 04:27:24;;;;;;;5.50;3.78;;;6.00;99.90;;;;;;5049854;28;20221;-56
2022/01/22 04:29:52;;;;;;;6.05;4.20;;;6.00;99.90;;;;;;5050097;28;20275;-55
2022/01/22 04:32:21;;;;;;;6.20;3.83;;;6.00;99.90;;;;;;5049805;28;20201;-55
2022/01/22 04:34:48;;;;;;;8.02;4.38;;;6.00;99.90;;;;;;5049742;28;20204;-56
2022/01/22 04:37:17;;;;;;;7.40;4.18;;;6.00;99.90;;;;;;5049751;28;20198;-56
2022/01/22 04:39:46;;;;;;;6.32;4.10;;;6.00;99.90;;;;;;5049889;28;20276;-54
2022/01/22 04:42:14;;;;;;;4.95;3.45;;;6.10;99.90;;;;;;5049968;28;20206;-56
2022/01/22 04:44:50;;;;;;;7.97;5.43;;;6.10;99.90;;;;;;5049653;28;20197;-57
2022/01/22 04:47:29;;;;;;;6.05;4.65;;;6.10;99.90;;;;;;5049813;28;20296;-55
2022/01/22 04:52:43;;;;;;;7.82;4.90;;;6.10;99.90;;;;;;5049982;28;20184;-55
2022/01/22 04:55:10;;;;;;;6.45;4.20;;;6.10;99.90;;;;;;5049968;28;20202;-56
2022/01/22 04:57:42;;;;;;;7.57;4.72;;;6.10;99.90;;;;;;5051824;28;20288;-56
2022/01/22 05:00:13;;;;;;;7.45;4.50;;;6.20;99.90;;;;;;5053541;28;20268;-55
2022/01/22 05:02:40;;;;;;;6.85;4.25;;;6.20;99.90;;;;;;5055566;28;20203;-56
2022/01/22 05:05:08;;;;;;;7.32;4.45;;;6.20;99.90;;;;;;5054748;28;20301;-55
2022/01/22 05:07:35;;;;;;;7.00;4.45;;;6.20;99.90;;;;;;5055195;28;20237;-57
2022/01/22 05:10:02;;;;;;;8.85;3.97;;;6.20;99.90;;;;;;5054569;28;20218;-55
2022/01/22 05:12:30;;;;;;;8.75;4.80;;;6.20;99.90;;;;;;5054234;28;20202;-55
2022/01/22 05:14:58;;;;;;;6.50;4.90;;;6.20;99.90;;;;;;5051015;28;20660;-55
2022/01/22 05:17:25;;;;;;;7.43;4.22;;;6.30;99.90;;;;;;5049713;28;20202;-57
2022/01/22 05:19:58;;;;;;;6.63;4.15;;;6.30;99.90;;;;;;5039953;28;20241;-58
2022/01/22 05:22:43;;;;;;;7.00;4.80;;;6.30;99.90;;;;;;5035845;28;20197;-56
2022/01/22 05:25:18;;;;;;;7.32;4.63;;;6.30;99.90;;;;;;5036224;28;20182;-58
2022/01/22 05:27:59;;;;;;;10.13;5.70;;;6.30;99.90;;;;;;5035865;28;20221;-58
2022/01/22 05:33:33;;;;;;;10.48;5.30;;;6.30;99.90;;;;;;5025092;28;20202;-57
2022/01/22 05:38:45;;;;;;;7.38;4.15;;;6.30;99.90;;;;;;5035704;28;20704;-58
2022/01/22 05:41:12;;;;;;;7.30;3.45;;;6.30;99.90;;;;;;5035142;28;20234;-57
2022/01/22 05:43:40;;;;;;;8.52;4.60;;;6.30;99.90;;;;;;5035551;28;20237;-58
2022/01/22 05:46:08;;;;;;;8.35;4.80;;;6.30;99.90;;;;;;5035427;28;20237;-58
2022/01/22 05:48:35;;;;;;;9.45;4.13;;;6.30;99.90;;;;;;5035165;28;20222;-58
2022/01/22 05:51:04;;;;;;;9.85;5.07;;;6.30;99.90;;;;;;5035296;28;20218;-56
2022/01/22 05:53:43;;;;;;;5.75;3.83;;;6.40;99.90;;;;;;5035438;28;20210;-58
2022/01/22 06:01:56;;;;;;;6.90;3.83;;;6.40;99.90;;;;;;5032624;28;20293;-58
2022/01/22 06:04:23;;;;;;;7.20;3.70;;;6.40;99.90;;;;;;5035327;28;20187;-57
2022/01/22 06:06:50;;;;;;;9.30;4.78;;;6.40;99.90;;;;;;5035103;28;20214;-58
2022/01/22 06:09:17;;;;;;;5.43;3.70;;;6.40;99.90;;;;;;5034981;28;20214;-58
2022/01/22 06:11:55;;;;;;;8.15;3.80;;;6.40;99.90;;;;;;5034997;28;20207;-56
2022/01/22 06:14:22;;;;;;;6.85;4.00;;;6.40;99.90;;;;;;5035550;28;20266;-56
2022/01/22 06:16:51;;;;;;;7.45;4.30;;;6.40;99.90;;;;;;5035210;28;20207;-57
2022/01/22 06:19:18;;;;;;;5.95;3.95;;;6.40;99.90;;;;;;5034912;28;20194;-57
2022/01/22 06:21:45;;;;;;;4.95;3.10;;;6.40;99.90;;;;;;5035286;28;20220;-58
2022/01/22 06:24:12;;;;;;;3.80;2.90;;;6.40;99.90;;;;;;5035359;28;20207;-57
2022/01/22 06:26:40;;;;;;;5.53;3.60;;;6.40;99.90;;;;;;5035425;28;20202;-57
2022/01/22 06:29:07;;;;;;;5.68;3.50;;;6.40;99.90;;;;;;5035315;28;20222;-57
2022/01/22 06:31:35;;;;;;;8.00;4.07;;;6.40;99.90;;;;;;5034095;28;20202;-58
2022/01/22 06:34:04;;;;;;;9.85;4.55;;;6.40;99.90;;;;;;5035000;28;20226;-59
2022/01/22 06:36:32;;;;;;;6.07;3.58;;;6.40;99.90;;;;;;5034447;28;20198;-56
2022/01/22 06:39:10;;;;;;;4.95;3.80;;;6.40;99.90;;;;;;5034792;28;20206;-57
2022/01/22 06:41:46;;;;;;;5.30;2.78;;;6.40;99.90;;;;;;5034202;28;20201;-58
2022/01/22 06:44:15;;;;;;;7.15;2.95;;;6.40;99.90;;;;;;5034225;28;20182;-58
2022/01/22 06:46:44;;;;;;;7.63;3.22;;;6.40;99.90;;;;;;5034958;28;20202;-58
2022/01/22 06:49:13;;;;;;;4.25;2.70;;;6.30;99.90;;;;;;5034152;28;20686;-57
2022/01/22 06:51:40;;;;;;;5.72;3.10;;;6.30;99.90;;;;;;5034245;28;20601;-57
2022/01/22 06:54:10;;;;;;;4.15;2.72;;;6.30;99.90;;;;;;5033921;28;20202;-59
2022/01/22 06:56:37;;;;;;;4.43;2.60;;;6.30;99.90;;;;;;5034186;28;20202;-58
2022/01/22 06:59:06;;;;;;;4.60;2.40;;;6.30;99.90;;;;;;5034153;28;20198;-58
2022/01/22 07:01:33;;;;;;;5.97;2.60;;;6.30;99.90;;;;;;5034230;28;20293;-58
2022/01/22 07:04:00;;;;;;;3.97;2.10;;;6.30;99.90;;;;;;5034018;28;20212;-57
2022/01/22 07:06:29;;;;;;;7.32;2.60;;;6.30;99.90;;;;;;5033824;28;20199;-59
2022/01/22 07:08:56;;;;;;;4.75;3.10;;;6.30;99.90;;;;;;5033556;28;20702;-57
2022/01/22 07:11:23;;;;;;;3.53;2.90;;;6.30;99.90;;;;;;5033710;28;20218;-57
2022/01/22 07:13:51;;;;;;;5.00;2.85;;;6.30;99.90;;;;;;5033724;28;20210;-57
2022/01/22 07:16:18;;;;;;;6.05;4.32;;;6.30;99.90;;;;;;5033448;28;20208;-58
2022/01/22 07:18:45;;;;;;;4.93;3.30;;;6.30;99.90;;;;;;5033543;28;20209;-59
2022/01/22 07:21:19;;;;;;;6.57;4.38;;;6.40;99.90;;;;;;5033222;28;20698;-58
2022/01/22 07:24:22;;;;;;;4.10;3.38;;;6.30;99.90;;;;;;5034161;28;20190;-58
2022/01/22 07:26:44;;;;;;;6.38;4.43;;;6.40;99.90;;;;;;5033114;28;20199;-57
2022/01/22 07:29:11;;;;;;;6.38;4.25;;;6.40;99.90;;;;;;5033330;28;20589;-59
2022/01/22 07:31:39;;;;;;;6.43;4.35;;;6.40;99.90;;;;;;5033297;28;20568;-58
2022/01/22 07:34:06;;;;;;;6.20;4.63;;;6.40;99.90;;;;;;5033309;28;20248;-58
2022/01/22 07:36:33;;;;;;;5.78;4.07;;;6.40;99.90;;;;;;5033306;28;20199;-57
2022/01/22 07:39:02;;;;;;;8.40;5.03;;;6.40;99.90;;;;;;5033500;28;20214;-58
2022/01/22 07:41:29;;;;;;;8.25;4.70;;;6.40;99.90;;;;;;5033056;28;20204;-57
2022/01/22 07:43:57;;;;;;;5.47;3.95;;;6.40;99.90;;;;;;5038688;28;20225;-58
2022/01/22 07:46:24;;;;;;;7.03;4.80;;;6.40;99.90;;;;;;5033347;28;20206;-57
2022/01/22 07:48:51;;;;;;;7.55;5.40;;;6.40;99.90;;;;;;5033134;28;20229;-57
2022/01/22 07:51:19;;;;;;;6.55;4.15;;;6.40;99.90;;;;;;5032848;28;20222;-57
2022/01/22 07:53:46;;;;;;;6.85;4.55;;;6.40;99.90;;;;;;5033186;28;20577;-57
2022/01/22 07:56:14;;;;;;;7.07;5.72;;;6.40;99.90;;;;;;5032890;28;20202;-55
2022/01/22 07:58:41;;;;;;;7.57;5.80;;;6.40;99.90;;;;;;5032770;28;20201;-56
2022/01/22 08:01:09;;;;;;;8.18;5.78;;;6.40;99.90;;;;;;5032983;28;20253;-58
2022/01/22 08:03:36;;;;;;;9.00;5.50;;;6.40;99.90;;;;;;5033031;28;20214;-58
2022/01/22 08:06:04;;;;;;;8.10;6.22;;;6.40;99.90;;;;;;5032712;28;20222;-58
2022/01/22 08:08:34;;;;;;;9.80;5.68;;;6.40;99.90;;;;;;5032919;28;20248;-58
2022/01/22 08:11:01;;;;;;;9.77;6.75;;;6.40;99.90;;;;;;5032732;28;20236;-58
2022/01/22 08:13:30;;;;;;;10.15;6.85;;;6.40;99.90;;;;;;5032898;28;20202;-57
2022/01/22 08:15:57;;;;;;;9.20;6.50;;;6.40;99.90;;;;;;5033126;28;20232;-58
2022/01/22 08:18:24;;;;;;;9.45;6.53;;;6.40;99.90;;;;;;5033060;28;20199;-57
2022/01/22 08:20:52;;;;;;;10.73;6.95;;;6.40;99.90;;;;;;5032625;28;20234;-57
2022/01/22 08:23:20;;;;;;;9.80;6.80;;;6.40;99.90;;;;;;5033120;28;20643;-57
2022/01/22 08:25:48;;;;;;;8.98;6.38;;;6.40;99.90;;;;;;5032891;28;20202;-57
2022/01/22 08:31:15;;;;;;;9.13;6.70;;;6.40;99.90;;;;;;5032702;28;20552;-57
2022/01/22 08:36:27;;;;;;;10.60;6.18;;;6.40;99.90;;;;;;5032803;28;20228;-58
2022/01/22 08:38:56;;;;;;;9.35;6.68;;;6.40;99.90;;;;;;5032803;28;20195;-57
2022/01/22 08:41:23;;;;;;;8.50;5.90;;;6.40;99.90;;;;;;5032510;28;20574;-58
2022/01/22 08:43:50;;;;;;;12.43;7.80;;;6.40;99.90;;;;;;5033582;28;20202;-57
2022/01/22 08:46:18;;;;;;;11.20;7.05;;;6.40;99.90;;;;;;5032529;28;20666;-57
2022/01/22 08:48:46;;;;;;;10.73;7.25;;;6.40;99.90;;;;;;5032584;28;20721;-58
2022/01/22 08:51:13;;;;;;;10.40;6.32;;;6.40;99.90;;;;;;5032794;28;20340;-58
2022/01/22 08:53:40;;;;;;;10.00;7.15;;;6.50;99.90;;;;;;5032518;28;20199;-58
2022/01/22 08:56:09;;;;;;;9.40;6.40;;;6.50;99.90;;;;;;5037036;28;20198;-57
2022/01/22 08:58:36;;;;;;;11.55;5.80;;;6.50;99.90;;;;;;5036477;28;20225;-58
2022/01/22 09:01:04;;;;;;;7.90;5.13;;;6.50;99.90;;;;;;5035816;28;20223;-58
2022/01/22 09:03:33;;;;;;;10.02;6.10;;;6.50;99.90;;;;;;5036341;28;20206;-57
2022/01/22 09:06:00;;;;;;;9.75;5.68;;;6.50;99.90;;;;;;5036239;28;20210;-59
2022/01/22 09:08:28;;;;;;;8.52;5.40;;;6.50;99.90;;;;;;5035713;28;20216;-56
2022/01/22 09:10:55;;;;;;;8.27;4.10;;;6.50;99.90;;;;;;5035948;28;20721;-57
2022/01/22 09:13:25;;;;;;;6.10;4.22;;;6.50;99.90;;;;;;5036137;28;20206;-58
2022/01/22 09:15:55;;;;;;;8.40;4.30;;;6.50;99.90;;;;;;5036043;28;20675;-58
2022/01/22 09:18:27;;;;;;;7.25;4.65;;;6.50;99.90;;;;;;5036645;28;20234;-61
2022/01/22 09:21:02;;;;;;;4.65;3.63;;;6.50;99.90;;;;;;5035551;28;20234;-57
2022/01/22 09:23:30;;;;;;;7.90;4.68;;;6.50;99.90;;;;;;5035554;28;20657;-56
2022/01/22 09:25:58;;;;;;;9.50;4.75;;;6.60;99.90;;;;;;5036424;28;20316;-56
2022/01/22 09:28:25;;;;;;;7.30;4.07;;;6.60;99.90;;;;;;5036259;28;20225;-56
2022/01/22 09:30:52;;;;;;;5.47;4.45;;;6.60;99.90;;;;;;5035974;28;20226;-56
2022/01/22 09:33:19;;;;;;;9.73;3.85;;;6.60;99.90;;;;;;5036630;28;20305;-55
2022/01/22 09:35:47;;;;;;;5.68;4.28;;;6.70;99.90;;;;;;5036110;28;20214;-55
2022/01/22 09:38:15;;;;;;;8.23;3.60;;;6.70;99.90;;;;;;5035906;28;20210;-55
2022/01/22 09:40:42;;;;;;;6.90;3.50;;;6.70;99.90;;;;;;5035570;28;20218;-56
2022/01/22 09:43:13;;;;;;;5.90;3.80;;;6.70;99.90;;;;;;5035572;28;20206;-56
2022/01/22 09:45:40;;;;;;;4.75;3.22;;;6.80;99.90;;;;;;5035192;28;20278;-55
2022/01/22 09:48:07;;;;;;;4.28;2.72;;;6.80;99.90;;;;;;5035779;28;20272;-56
2022/01/22 09:50:35;;;;;;;3.88;2.70;;;6.80;99.90;;;;;;5034897;28;20705;-54
2022/01/22 09:53:03;;;;;;;7.25;2.97;;;6.80;99.90;;;;;;5035268;28;20202;-56
2022/01/22 09:55:45;;;;;;;5.53;2.90;;;6.80;99.90;;;;;;5036380;28;20674;-59
2022/01/22 09:58:12;;;;;;;6.10;2.60;;;6.90;99.90;;;;;;5037931;28;20226;-58
2022/01/22 10:00:39;;;;;;;4.35;3.40;;;6.90;99.90;;;;;;5044360;28;20199;-52
2022/01/22 10:03:17;;;;;;;3.70;2.85;;;6.90;99.90;;;;;;5038556;28;20574;-56
2022/01/22 10:05:44;;;;;;;3.83;3.03;;;7.00;99.90;;;;;;5034663;28;20240;-56
2022/01/22 10:08:28;;;;;;;4.40;2.70;;;7.10;99.90;;;;;;5035003;28;20202;-55
2022/01/22 10:10:59;;;;;;;6.28;3.58;;;7.10;99.90;;;;;;5034923;28;20222;-56
2022/01/22 10:13:40;;;;;;;5.93;3.55;;;7.20;99.90;;;;;;5034509;28;20193;-55
2022/01/22 10:16:12;;;;;;;4.32;3.65;;;7.20;99.90;;;;;;5034899;28;20210;-57
2022/01/22 10:18:39;;;;;;;5.57;3.20;;;7.20;99.90;;;;;;5034748;28;20213;-57
2022/01/22 10:21:09;;;;;;;7.05;3.90;;;7.30;99.90;;;;;;5059390;22;20572;-62
2022/01/22 10:23:39;;;;;;;6.38;3.45;;;7.30;99.90;;;;;;5035362;28;20650;-61
2022/01/22 10:26:12;;;;;;;5.18;3.20;;;7.40;99.90;;;;;;5035280;28;20206;-61
2022/01/22 10:28:43;;;;;;;5.90;3.50;;;7.40;99.90;;;;;;5034926;28;20191;-62
2022/01/22 10:31:18;;;;;;;6.15;3.75;;;7.40;99.90;;;;;;5035424;28;20249;-61
2022/01/22 10:34:03;;;;;;;4.45;3.70;;;7.40;99.90;;;;;;5035397;28;20269;-62
2022/01/22 10:36:30;;;;;;;5.55;4.18;;;7.50;99.90;;;;;;5035165;28;20182;-63
2022/01/22 10:38:57;;;;;;;7.43;3.63;;;7.50;99.90;;;;;;5035115;28;20209;-62
2022/01/22 10:41:36;;;;;;;5.30;3.03;;;7.50;99.90;;;;;;5035042;28;20229;-62
2022/01/22 10:44:09;;;;;;;10.40;3.63;;;7.50;99.90;;;;;;5035413;28;20631;-63
2022/01/22 10:46:47;;;;;;;4.30;3.20;;;7.50;99.90;;;;;;5035053;28;20281;-63
2022/01/22 10:49:16;;;;;;;4.65;3.30;;;7.50;99.90;;;;;;5036614;28;20210;-61
2022/01/22 10:51:51;;;;;;;4.75;3.30;;;7.50;99.90;;;;;;5035894;28;20230;-61
2022/01/22 10:54:20;;;;;;;3.10;2.80;;;7.50;99.90;;;;;;5037334;28;20194;-61
2022/01/22 10:56:49;;;;;;;5.03;3.35;;;7.50;99.90;;;;;;5035402;28;20566;-62
2022/01/22 10:59:18;;;;;;;4.80;3.47;;;7.50;99.90;;;;;;5035384;28;20210;-62
2022/01/22 11:01:55;;;;;;;4.53;3.05;;;7.40;99.90;;;;;;5034732;28;20222;-62
2022/01/22 11:04:24;;;;;;;3.60;2.60;;;7.40;99.90;;;;;;5035287;28;20317;-60
2022/01/22 11:06:56;;;;;;;4.63;2.65;;;7.30;99.90;;;;;;5034251;28;20206;-63
2022/01/22 11:09:24;;;;;;;3.38;2.80;;;7.30;99.90;;;;;;5034378;28;20210;-62
2022/01/22 11:11:54;;;;;;;4.35;2.72;;;7.20;99.90;;;;;;5034456;28;20199;-62
2022/01/22 11:14:21;;;;;;;5.78;3.25;;;7.10;99.90;;;;;;5034132;28;20296;-61
2022/01/22 11:16:50;;;;;;;3.15;2.55;;;7.00;99.90;;;;;;5034620;28;20236;-62
2022/01/22 11:19:18;;;;;;;4.25;3.25;;;6.90;99.90;;;;;;5034557;28;20209;-62
2022/01/22 11:21:47;;;;;;;3.92;3.15;;;6.90;99.90;;;;;;5034721;28;20652;-62
2022/01/22 11:24:17;;;;;;;4.82;3.85;;;6.90;99.90;;;;;;5034762;28;20207;-62
2022/01/22 11:26:46;;;;;;;4.60;3.80;;;6.90;99.90;;;;;;5034834;28;20693;-62
2022/01/22 11:29:16;;;;;;;4.90;4.13;;;6.90;99.90;;;;;;5034640;28;20229;-61
2022/01/22 11:31:46;;;;;;;6.97;4.10;;;6.80;99.90;;;;;;5034179;28;20226;-62
2022/01/22 11:34:17;;;;;;;10.60;4.70;;;6.80;99.90;;;;;;5033983;28;20198;-62
2022/01/22 11:36:53;;;;;;;6.05;4.20;;;6.80;99.90;;;;;;5033829;28;20195;-61
2022/01/22 11:39:22;;;;;;;5.00;4.40;;;6.80;99.90;;;;;;5033768;28;20194;-62
2022/01/22 11:41:54;;;;;;;5.05;4.10;;;6.80;99.90;;;;;;5033859;28;20571;-62
2022/01/22 11:44:35;;;;;;;3.78;3.38;;;6.80;99.90;;;;;;5035185;28;20272;-59
2022/01/22 11:47:11;;;;;;;4.57;3.15;;;6.70;99.90;;;;;;5034301;28;20186;-63
2022/01/22 11:49:38;;;;;;;5.57;3.97;;;6.70;99.90;;;;;;5035224;28;20229;-60
2022/01/22 11:52:28;;;;;;;6.18;3.95;;;6.70;99.90;;;;;;5036390;28;20202;-59
2022/01/22 11:54:59;;;;;;;4.53;3.35;;;6.70;99.90;;;;;;5037589;28;20186;-63
2022/01/22 11:57:27;;;;;;;6.95;4.50;;;6.70;99.90;;;;;;5036266;28;20191;-61
2022/01/22 12:00:22;;;;;;;5.00;3.80;;;6.70;99.90;;;;;;5036275;28;20222;-61
2022/01/22 12:03:18;;;;;;;4.72;3.25;;;6.70;99.90;;;;;;5037808;28;20221;-61
2022/01/22 12:06:07;;;;;;;6.15;3.38;;;6.70;99.90;;;;;;5039020;28;20264;-62
2022/01/22 12:09:06;;;;;;;4.80;3.90;;;6.80;99.90;;;;;;5040264;28;20610;-60
2022/01/22 12:14:56;;;;;;;8.52;3.80;;;6.80;99.90;;;;;;5043072;28;20189;-61
2022/01/22 12:18:00;;;;;;;4.95;3.78;;;6.80;99.90;;;;;;5042373;28;20202;-63
2022/01/22 12:23:53;;;;;;;6.35;4.20;;;6.70;99.90;;;;;;5037111;28;20656;-62
2022/01/22 12:26:47;;;;;;;5.20;4.00;;;6.70;99.90;;;;;;5038012;28;20210;-62
2022/01/22 12:29:38;;;;;;;5.82;4.43;;;6.70;99.90;;;;;;5041383;28;20560;-62
2022/01/22 12:35:17;;;;;;;6.53;5.45;;;6.80;99.90;;;;;;5044474;28;20208;-62
2022/01/22 12:38:00;;;;;;;9.05;5.03;;;6.80;99.90;;;;;;5045714;28;20719;-60
2022/01/22 12:40:33;;;;;;;7.75;4.53;;;6.80;99.90;;;;;;5044916;28;20258;-62
2022/01/22 12:43:11;;;;;;;5.72;3.70;;;6.80;99.90;;;;;;5046444;28;20190;-62
2022/01/22 12:45:41;;;;;;;5.15;3.70;;;6.80;99.90;;;;;;5045172;28;20190;-62
2022/01/22 12:48:08;;;;;;;3.83;2.83;;;6.90;99.90;;;;;;5045522;28;20202;-61
2022/01/22 12:50:38;;;;;;;4.65;3.33;;;6.90;99.90;;;;;;5045075;28;20222;-62
2022/01/22 12:53:18;;;;;;;3.60;2.60;;;6.90;99.90;;;;;;5044366;28;20202;-62
2022/01/22 12:58:33;;;;;;;3.88;3.17;;;6.90;99.90;;;;;;5039176;28;20277;-62
2022/01/22 13:01:13;;;;;;;4.45;3.00;;;6.90;99.90;;;;;;5044774;28;20230;-62
2022/01/22 13:03:42;;;;;;;4.38;3.83;;;6.90;99.90;;;;;;5045699;28;20221;-61
2022/01/22 13:06:10;;;;;;;6.80;4.43;;;6.90;99.90;;;;;;5048789;28;20213;-62
2022/01/22 13:08:37;;;;;;;5.72;4.70;;;6.90;99.90;;;;;;5048451;28;20202;-61
2022/01/22 13:11:08;;;;;;;6.93;4.72;;;6.90;99.90;;;;;;5046392;28;20245;-62
2022/01/22 13:13:37;;;;;;;6.22;4.75;;;6.90;99.90;;;;;;5049815;28;20191;-62
2022/01/22 13:16:06;;;;;;;7.47;4.32;;;6.90;99.90;;;;;;5046625;28;20209;-61
2022/01/22 13:18:46;;;;;;;6.13;5.35;;;6.90;99.90;;;;;;5042003;28;20632;-62
2022/01/22 13:21:17;;;;;;;9.80;5.78;;;6.80;99.90;;;;;;5038037;28;20261;-61
2022/01/22 13:23:46;;;;;;;10.68;6.68;;;6.90;99.90;;;;;;5040037;28;20201;-62
2022/01/22 13:26:14;;;;;;;7.72;6.30;;;6.80;99.90;;;;;;5043502;28;20210;-62
2022/01/22 13:28:42;;;;;;;9.68;6.72;;;6.80;99.90;;;;;;5039502;28;20213;-61
2022/01/22 13:31:16;;;;;;;9.10;6.80;;;6.80;99.90;;;;;;5042329;28;20230;-62
2022/01/22 13:33:56;;;;;;;9.35;5.40;;;6.80;99.90;;;;;;5037556;28;20240;-62
2022/01/22 13:36:45;;;;;;;7.47;6.13;;;6.80;99.90;;;;;;5036781;28;20183;-62
2022/01/22 13:39:47;;;;;;;5.75;4.30;;;6.80;99.90;;;;;;5037529;28;20191;-62
2022/01/22 13:45:18;;;;;;;3.30;3.00;;;6.90;99.90;;;;;;5038341;28;20181;-61
2022/01/22 13:47:52;;;;;;;4.70;3.60;;;6.90;99.90;;;;;;5036939;28;20187;-61
2022/01/22 13:50:22;;;;;;;3.70;3.33;;;6.90;99.90;;;;;;5037080;28;20291;-62
2022/01/22 13:52:51;;;;;;;4.22;3.58;;;7.00;99.90;;;;;;5038106;28;20202;-62
2022/01/22 13:55:18;;;;;;;3.95;3.53;;;7.00;99.90;;;;;;5043218;28;20198;-61
2022/01/22 13:57:47;;;;;;;4.03;3.45;;;7.00;99.90;;;;;;5045004;28;20567;-62
2022/01/22 14:00:17;;;;;;;4.03;3.63;;;7.00;99.90;;;;;;5047347;28;20796;-62
2022/01/22 14:03:05;;;;;;;3.38;2.90;;;7.00;99.90;;;;;;5050397;28;20206;-61
2022/01/22 14:05:33;;;;;;;2.47;2.20;;;7.00;99.90;;;;;;5047076;28;20190;-61
2022/01/22 14:08:05;;;;;;;2.92;2.63;;;7.00;99.90;;;;;;5038994;28;20206;-62
2022/01/22 14:10:34;;;;;;;3.30;2.30;;;6.90;99.90;;;;;;5039690;28;20227;-62
2022/01/22 14:13:07;;;;;;;3.40;2.88;;;6.90;99.90;;;;;;5036981;28;20225;-62
2022/01/22 14:15:38;;;;;;;3.00;2.55;;;6.80;99.90;;;;;;5035809;28;20314;-62
2022/01/22 14:18:13;;;;;;;4.15;2.65;;;6.80;99.90;;;;;;5035545;28;20209;-62
2022/01/22 14:20:42;;;;;;;2.30;2.10;;;6.80;99.90;;;;;;5035148;28;20226;-62
2022/01/22 14:23:12;;;;;;;2.30;2.10;;;6.80;99.90;;;;;;5035587;28;20260;-61
2022/01/22 14:25:55;;;;;;;3.80;2.33;;;6.80;99.90;;;;;;5035563;28;20208;-62
2022/01/22 14:28:25;;;;;;;2.55;2.35;;;6.80;99.90;;;;;;5035477;28;20186;-61
2022/01/22 14:30:52;;;;;;;2.65;2.33;;;6.80;99.90;;;;;;5035495;28;20686;-61
2022/01/22 14:33:20;;;;;;;2.25;1.73;;;6.80;99.90;;;;;;5036635;28;20209;-62